aviador You're here:

YBTL Decoded Metar

TOWNSVILLE in AUSTRALIA
Report Time2018-02-17 23:00:00
UTC Time2018-02-17 23:36:54
Flight Rules vfr VFR
Wind130° at 05 kt
W.Decomp.*RWY 07: 3.1 kt HW 3.9 kt RCW
RWY 19: 1.9 kt HW 4.6 kt LCW
W.Rank130° ranks 3
Current wind is below 130° avg. (7.8)
Visibility9999 m
Phenomena:N/A
Clouds:Few 020 Hf
Expected CloudBase > 4,400 ft AGL from Temp-Dew spread
CeilingNone
Temp31°C (ISA +16)
Dew Point20°C (52% RH)
Heat Index33.0°C
QNH1010 hPa
Density Alt2,264 ft
Elevation20 ft
Report Wrong Elevation
Raw Report
METAR YBTL 172300Z 13005KT 9999 FEW020 31/20 Q1010
NOSIG=

Extra information for YBTL:More info

Metar Taf Metar & Taf Last 4 Metars F.Rules Stats Wind Profile Meteogram Temp Stats Airport Information Weather charts Add Link Nearby VenuesMetar ALERT Operation Metar Decoded Social comments